Terminal Aerodrome Forecast
Issued by NWS

Home | Current Version | Previous Version | Text Only | Print | Product List | Glossary On
Versions: 1 2 3 4 5 6 7 8 9 10 11 12 13 14 15 16 17 18 19 20
000
FTUS43 KICT 250520
TAFRSL
TAF
KRSL 250520Z 2506/2606 13009KT P6SM OVC200
     FM251200 01007KT P6SM OVC100
     FM251700 03017G25KT P6SM OVC080
     FM252000 02022G30KT P6SM BKN035 OVC080=

USA.gov is the U.S. government's official web portal to all federal, state and local government web resources and services.